JES3871 SABE-SLVR
Flight info
| Callsign | JES3871 |
|---|---|
| Flight time | N/A |
| Altitude | 36000 |
| Route | BIVAM4B BIVAM UN775 PILCO UM784 BOLET UL404 KABOM |
| Aircraft | A320/M-SDE3FGHIRWY/LB1 |
Departure
| Time | 2026-05-06 22:32 |
|---|---|
| Airport | Aeroparque Jorge Newbery (SABE) |
Arrival
| Time | N/A |
|---|---|
| Airport | Viru Viru International Airport (SLVR) |
| Time | Latitude | Longitude | Altitude | Speed | Heading |
|---|---|---|---|---|---|
| 2026-05-06 22:01 | -34.55757 | -58.41323 | 29 ft | 0 kts | 35° |
| 2026-05-06 22:04 | -34.55758 | -58.41323 | 29 ft | 0 kts | 35° |
| 2026-05-06 22:09 | -34.55758 | -58.41324 | 53 ft | 0 kts | 35° |
| 2026-05-06 22:22 | -34.55769 | -58.41333 | 29 ft | 2 kts | 35° |
| 2026-05-06 22:22 | -34.55780 | -58.41343 | 26 ft | 2 kts | 35° |
| 2026-05-06 22:23 | -34.55789 | -58.41350 | 26 ft | 1 kts | 19° |
| 2026-05-06 22:23 | -34.55797 | -58.41353 | 26 ft | 1 kts | 333° |
| 2026-05-06 22:23 | -34.55802 | -58.41349 | 31 ft | 0 kts | 305° |
| 2026-05-06 22:25 | -34.55790 | -58.41371 | 30 ft | 8 kts | 305° |
| 2026-05-06 22:25 | -34.55740 | -58.41463 | 28 ft | 16 kts | 299° |
| 2026-05-06 22:25 | -34.55751 | -58.41572 | 26 ft | 15 kts | 214° |
| 2026-05-06 22:26 | -34.55781 | -58.41638 | 25 ft | 9 kts | 284° |
| 2026-05-06 22:26 | -34.55745 | -58.41732 | 28 ft | 17 kts | 296° |
| 2026-05-06 22:26 | -34.55671 | -58.41872 | 28 ft | 21 kts | 304° |
| 2026-05-06 22:26 | -34.55598 | -58.42004 | 27 ft | 17 kts | 304° |
| 2026-05-06 22:27 | -34.55528 | -58.42120 | 26 ft | 16 kts | 306° |
| 2026-05-06 22:27 | -34.55479 | -58.42200 | 27 ft | 11 kts | 307° |
| 2026-05-06 22:27 | -34.55434 | -58.42271 | 27 ft | 10 kts | 307° |
| 2026-05-06 22:27 | -34.55406 | -58.42317 | 28 ft | 5 kts | 307° |
| 2026-05-06 22:28 | -34.55403 | -58.42321 | 27 ft | 0 kts | 307° |
| 2026-05-06 22:28 | -34.55397 | -58.42332 | 25 ft | 3 kts | 307° |
| 2026-05-06 22:28 | -34.55382 | -58.42356 | 28 ft | 4 kts | 306° |
| 2026-05-06 22:29 | -34.55379 | -58.42361 | 27 ft | 0 kts | 303° |
| 2026-05-06 22:29 | -34.55378 | -58.42363 | 27 ft | 2 kts | 303° |
| 2026-05-06 22:29 | -34.55362 | -58.42428 | 25 ft | 12 kts | 282° |
| 2026-05-06 22:29 | -34.55397 | -58.42504 | 26 ft | 11 kts | 179° |
| 2026-05-06 22:30 | -34.55435 | -58.42455 | 27 ft | 0 kts | 124° |
| 2026-05-06 22:31 | -34.55473 | -58.42388 | 27 ft | 35 kts | 124° |
| 2026-05-06 22:32 | -34.55746 | -58.41899 | 24 ft | 101 kts | 124° |
| 2026-05-06 22:32 | -34.56233 | -58.41019 | 40 ft | 147 kts | 122° |
| 2026-05-06 22:32 | -34.56810 | -58.39958 | 531 ft | 152 kts | 121° |
| 2026-05-06 22:32 | -34.57383 | -58.38853 | 1000 ft | 162 kts | 116° |
| 2026-05-06 22:33 | -34.57896 | -58.37571 | 1283 ft | 177 kts | 98° |
| 2026-05-06 22:33 | -34.58105 | -58.36044 | 1514 ft | 190 kts | 82° |
| 2026-05-06 22:33 | -34.57966 | -58.34403 | 1723 ft | 202 kts | 68° |
| 2026-05-06 22:33 | -34.57409 | -58.32778 | 1978 ft | 216 kts | 50° |
| 2026-05-06 22:34 | -34.56416 | -58.31376 | 2290 ft | 230 kts | 32° |
| 2026-05-06 22:34 | -34.54981 | -58.30480 | 2835 ft | 235 kts | 7° |
| 2026-05-06 22:34 | -34.53366 | -58.30486 | 3575 ft | 234 kts | 341° |
| 2026-05-06 22:34 | -34.51953 | -58.31441 | 4397 ft | 236 kts | 318° |
| 2026-05-06 22:35 | -34.50753 | -58.32828 | 5233 ft | 239 kts | 316° |
| 2026-05-06 22:35 | -34.49550 | -58.34235 | 6080 ft | 241 kts | 316° |
| 2026-05-06 22:35 | -34.48751 | -58.35176 | 6616 ft | 243 kts | 316° |
| 2026-05-06 22:35 | -34.47530 | -58.36606 | 7428 ft | 244 kts | 316° |
| 2026-05-06 22:36 | -34.45896 | -58.38513 | 8495 ft | 247 kts | 317° |
| 2026-05-06 22:36 | -34.45056 | -58.39490 | 9017 ft | 248 kts | 317° |
| 2026-05-06 22:36 | -34.43799 | -58.40945 | 9779 ft | 251 kts | 317° |
| 2026-05-06 22:36 | -34.42515 | -58.42428 | 10122 ft | 268 kts | 316° |
| 2026-05-06 22:37 | -34.41103 | -58.44059 | 10301 ft | 289 kts | 316° |
| 2026-05-06 22:37 | -34.39622 | -58.45770 | 10773 ft | 298 kts | 316° |
| 2026-05-06 22:37 | -34.38113 | -58.47515 | 11362 ft | 302 kts | 316° |
| 2026-05-06 22:37 | -34.36583 | -58.49282 | 11979 ft | 305 kts | 315° |
| 2026-05-06 22:38 | -34.35036 | -58.51065 | 12587 ft | 308 kts | 315° |
| 2026-05-06 22:38 | -34.33492 | -58.52846 | 13169 ft | 312 kts | 315° |
| 2026-05-06 22:38 | -34.31911 | -58.54669 | 13714 ft | 315 kts | 315° |
| 2026-05-06 22:38 | -34.30317 | -58.56505 | 14213 ft | 318 kts | 315° |
| 2026-05-06 22:39 | -34.28702 | -58.58363 | 14750 ft | 321 kts | 315° |
| 2026-05-06 22:39 | -34.27081 | -58.60225 | 15303 ft | 322 kts | 315° |
| 2026-05-06 22:39 | -34.25437 | -58.62094 | 15868 ft | 325 kts | 318° |
| 2026-05-06 22:39 | -34.23497 | -58.63517 | 16421 ft | 331 kts | 334° |
| 2026-05-06 22:40 | -34.21371 | -58.64534 | 16983 ft | 333 kts | 335° |
| 2026-05-06 22:40 | -34.19205 | -58.65552 | 17563 ft | 335 kts | 335° |
| 2026-05-06 22:40 | -34.17025 | -58.66573 | 18117 ft | 337 kts | 335° |
| 2026-05-06 22:40 | -34.14839 | -58.67598 | 18629 ft | 339 kts | 335° |
| 2026-05-06 22:41 | -34.10407 | -58.69674 | 19605 ft | 344 kts | 335° |
| 2026-05-06 22:41 | -34.08159 | -58.70726 | 20102 ft | 347 kts | 335° |
| 2026-05-06 22:41 | -34.05901 | -58.71785 | 20585 ft | 349 kts | 335° |
| 2026-05-06 22:42 | -34.03625 | -58.72855 | 21060 ft | 351 kts | 335° |
| 2026-05-06 22:42 | -34.01334 | -58.73932 | 21531 ft | 354 kts | 335° |
| 2026-05-06 22:42 | -33.99058 | -58.75000 | 21993 ft | 356 kts | 335° |
| 2026-05-06 22:42 | -33.96737 | -58.76089 | 22454 ft | 358 kts | 335° |
| 2026-05-06 22:43 | -33.94396 | -58.77186 | 22914 ft | 360 kts | 335° |
| 2026-05-06 22:43 | -33.92073 | -58.78272 | 23325 ft | 363 kts | 335° |
| 2026-05-06 22:43 | -33.89706 | -58.79376 | 23670 ft | 366 kts | 335° |
| 2026-05-06 22:43 | -33.87324 | -58.80489 | 24036 ft | 368 kts | 335° |
| 2026-05-06 22:44 | -33.84925 | -58.81611 | 24407 ft | 370 kts | 335° |
| 2026-05-06 22:44 | -33.82512 | -58.82739 | 24778 ft | 372 kts | 335° |
| 2026-05-06 22:44 | -33.80086 | -58.83871 | 25148 ft | 374 kts | 335° |
| 2026-05-06 22:44 | -33.77680 | -58.84995 | 25510 ft | 376 kts | 335° |
| 2026-05-06 22:45 | -33.75234 | -58.86137 | 25884 ft | 378 kts | 335° |
| 2026-05-06 22:45 | -33.72767 | -58.87288 | 26217 ft | 380 kts | 334° |
| 2026-05-06 22:45 | -33.70290 | -58.88439 | 26554 ft | 382 kts | 334° |
| 2026-05-06 22:45 | -33.67794 | -58.89596 | 26909 ft | 384 kts | 334° |
| 2026-05-06 22:46 | -33.65323 | -58.90743 | 27252 ft | 386 kts | 334° |
| 2026-05-06 22:46 | -33.62802 | -58.91911 | 27603 ft | 388 kts | 334° |
| 2026-05-06 22:46 | -33.60277 | -58.93080 | 27954 ft | 390 kts | 334° |
| 2026-05-06 22:46 | -33.57729 | -58.94265 | 28307 ft | 392 kts | 334° |
| 2026-05-06 22:47 | -33.55206 | -58.95442 | 28657 ft | 394 kts | 333° |
| 2026-05-06 22:47 | -33.52640 | -58.96637 | 29003 ft | 396 kts | 333° |
| 2026-05-06 22:47 | -33.50061 | -58.97834 | 29355 ft | 398 kts | 333° |
| 2026-05-06 22:47 | -33.47472 | -58.99031 | 29693 ft | 400 kts | 333° |
| 2026-05-06 22:48 | -33.44866 | -59.00234 | 30032 ft | 400 kts | 333° |
| 2026-05-06 22:48 | -33.42305 | -59.01415 | 30470 ft | 398 kts | 333° |
| 2026-05-06 22:48 | -33.39732 | -59.02600 | 30932 ft | 395 kts | 332° |
| 2026-05-06 22:48 | -33.37170 | -59.03780 | 31433 ft | 391 kts | 332° |
| 2026-05-06 22:49 | -33.34642 | -59.04940 | 31979 ft | 387 kts | 332° |
| 2026-05-06 22:49 | -33.32141 | -59.06088 | 32469 ft | 383 kts | 331° |
| 2026-05-06 22:49 | -33.29661 | -59.07233 | 32929 ft | 381 kts | 330° |
| 2026-05-06 22:49 | -33.27185 | -59.08378 | 33391 ft | 379 kts | 330° |
| 2026-05-06 22:50 | -33.24766 | -59.09494 | 33838 ft | 376 kts | 329° |
| 2026-05-06 22:50 | -33.22328 | -59.10619 | 34217 ft | 374 kts | 329° |
| 2026-05-06 22:50 | -33.19904 | -59.11733 | 34555 ft | 373 kts | 329° |
| 2026-05-06 22:50 | -33.17482 | -59.12846 | 34874 ft | 372 kts | 329° |
| 2026-05-06 22:51 | -33.15054 | -59.13961 | 35182 ft | 371 kts | 329° |
| 2026-05-06 22:51 | -33.12674 | -59.15052 | 35481 ft | 370 kts | 329° |
| 2026-05-06 22:51 | -33.10264 | -59.16156 | 35648 ft | 370 kts | 328° |
| 2026-05-06 22:52 | -33.05421 | -59.18380 | 35693 ft | 374 kts | 328° |
| 2026-05-06 22:52 | -33.00588 | -59.20594 | 35695 ft | 374 kts | 329° |
| 2026-05-06 22:53 | -32.95725 | -59.22822 | 35695 ft | 374 kts | 329° |
| 2026-05-06 22:53 | -32.90851 | -59.25039 | 35670 ft | 374 kts | 329° |
| 2026-05-06 22:54 | -32.85979 | -59.27262 | 35693 ft | 375 kts | 328° |
| 2026-05-06 22:54 | -32.81120 | -59.29482 | 35697 ft | 376 kts | 328° |
| 2026-05-06 22:55 | -32.76224 | -59.31708 | 35714 ft | 376 kts | 328° |
| 2026-05-06 22:55 | -32.71334 | -59.33932 | 35731 ft | 376 kts | 329° |
| 2026-05-06 22:56 | -32.66476 | -59.36135 | 35711 ft | 375 kts | 328° |
| 2026-05-06 22:56 | -32.61590 | -59.38352 | 35712 ft | 375 kts | 329° |
| 2026-05-06 22:57 | -32.56859 | -59.40494 | 35714 ft | 375 kts | 328° |
| 2026-05-06 22:57 | -32.52552 | -59.42443 | 35720 ft | 375 kts | 328° |
| 2026-05-06 22:58 | -32.47676 | -59.44643 | 35720 ft | 375 kts | 329° |
| 2026-05-06 22:58 | -32.42728 | -59.46682 | 35720 ft | 381 kts | 334° |
| 2026-05-06 22:59 | -32.37621 | -59.48310 | 35720 ft | 382 kts | 334° |
| 2026-05-06 22:59 | -32.32491 | -59.49946 | 35717 ft | 381 kts | 334° |
| 2026-05-06 23:00 | -32.27359 | -59.51591 | 35722 ft | 381 kts | 334° |
| 2026-05-06 23:00 | -32.22257 | -59.53221 | 35720 ft | 381 kts | 334° |
| 2026-05-06 23:01 | -32.17125 | -59.54853 | 35720 ft | 382 kts | 334° |
| 2026-05-06 23:01 | -32.11985 | -59.56485 | 35718 ft | 382 kts | 334° |
| 2026-05-06 23:02 | -32.06870 | -59.58111 | 35685 ft | 382 kts | 334° |
| 2026-05-06 23:02 | -32.01726 | -59.59742 | 35696 ft | 382 kts | 334° |
| 2026-05-06 23:03 | -31.96621 | -59.61360 | 35730 ft | 382 kts | 334° |
| 2026-05-06 23:03 | -31.91496 | -59.62987 | 35727 ft | 381 kts | 334° |
| 2026-05-06 23:04 | -31.86376 | -59.64610 | 35722 ft | 380 kts | 334° |
| 2026-05-06 23:04 | -31.81256 | -59.66224 | 35702 ft | 380 kts | 334° |
| 2026-05-06 23:05 | -31.76175 | -59.67828 | 35712 ft | 380 kts | 334° |
| 2026-05-06 23:05 | -31.71063 | -59.69443 | 35716 ft | 380 kts | 333° |
| 2026-05-06 23:06 | -31.65939 | -59.71063 | 35717 ft | 380 kts | 334° |
| 2026-05-06 23:06 | -31.60855 | -59.72659 | 35683 ft | 380 kts | 334° |
| 2026-05-06 23:07 | -31.55732 | -59.74261 | 35694 ft | 381 kts | 334° |
| 2026-05-06 23:07 | -31.50605 | -59.75869 | 35707 ft | 381 kts | 333° |
| 2026-05-06 23:08 | -31.45504 | -59.77473 | 35714 ft | 381 kts | 334° |
| 2026-05-06 23:08 | -31.40371 | -59.79081 | 35691 ft | 381 kts | 333° |
| 2026-05-06 23:09 | -31.35262 | -59.80679 | 35703 ft | 382 kts | 333° |
| 2026-05-06 23:09 | -31.30123 | -59.82282 | 35712 ft | 382 kts | 333° |
| 2026-05-06 23:10 | -31.19681 | -59.85536 | 35717 ft | 382 kts | 333° |
| 2026-05-06 23:11 | -31.14542 | -59.87137 | 35709 ft | 382 kts | 333° |
| 2026-05-06 23:11 | -31.10267 | -59.88465 | 35712 ft | 381 kts | 333° |
| 2026-05-06 23:12 | -31.04297 | -59.90327 | 35741 ft | 381 kts | 333° |
| 2026-05-06 23:12 | -31.00035 | -59.91659 | 35732 ft | 380 kts | 333° |
| 2026-05-06 23:13 | -30.94916 | -59.93277 | 35705 ft | 380 kts | 333° |
| 2026-05-06 23:13 | -30.89800 | -59.94893 | 35706 ft | 380 kts | 333° |
| 2026-05-06 23:14 | -30.84715 | -59.96489 | 35713 ft | 380 kts | 333° |
| 2026-05-06 23:14 | -30.79635 | -59.98085 | 35718 ft | 379 kts | 333° |
| 2026-05-06 23:15 | -30.74528 | -59.99693 | 35723 ft | 379 kts | 333° |
| 2026-05-06 23:15 | -30.69428 | -60.01296 | 35703 ft | 379 kts | 333° |
| 2026-05-06 23:16 | -30.64321 | -60.02894 | 35718 ft | 379 kts | 333° |
| 2026-05-06 23:16 | -30.59251 | -60.04482 | 35726 ft | 379 kts | 333° |
| 2026-05-06 23:17 | -30.54152 | -60.06080 | 35724 ft | 379 kts | 333° |
| 2026-05-06 23:17 | -30.49083 | -60.07668 | 35697 ft | 379 kts | 333° |
| 2026-05-06 23:18 | -30.43986 | -60.09264 | 35705 ft | 379 kts | 333° |
| 2026-05-06 23:18 | -30.38898 | -60.10845 | 35716 ft | 379 kts | 333° |
| 2026-05-06 23:19 | -30.33785 | -60.12434 | 35723 ft | 379 kts | 333° |
| 2026-05-06 23:19 | -30.28704 | -60.14015 | 35732 ft | 379 kts | 333° |
| 2026-05-06 23:20 | -30.23595 | -60.15605 | 35738 ft | 379 kts | 333° |
| 2026-05-06 23:20 | -30.18491 | -60.17194 | 35740 ft | 379 kts | 333° |
| 2026-05-06 23:21 | -30.13412 | -60.18771 | 35754 ft | 379 kts | 333° |
| 2026-05-06 23:21 | -30.08311 | -60.20349 | 35750 ft | 379 kts | 333° |
| 2026-05-06 23:22 | -30.03228 | -60.21926 | 35719 ft | 378 kts | 333° |
| 2026-05-06 23:22 | -29.98173 | -60.23495 | 35724 ft | 378 kts | 333° |
| 2026-05-06 23:23 | -29.93084 | -60.25069 | 35737 ft | 378 kts | 333° |
| 2026-05-06 23:23 | -29.87995 | -60.26633 | 35740 ft | 378 kts | 333° |